createdAt,value
2017-04-07T00:00:17.528Z,1013.49
2017-04-07T00:00:58.009Z,1013.43
2017-04-07T00:01:38.500Z,1013.47
2017-04-07T00:02:18.962Z,1013.42
2017-04-07T00:02:59.444Z,1013.42
2017-04-07T00:03:39.977Z,1013.38
2017-04-07T00:04:20.455Z,1013.36
2017-04-07T00:05:00.944Z,1013.38
2017-04-07T00:05:41.426Z,1013.31
2017-04-07T00:06:21.929Z,1013.36
2017-04-07T00:07:02.412Z,1013.34
2017-04-07T00:07:42.937Z,1013.37
2017-04-07T00:08:23.436Z,1013.33
2017-04-07T00:09:03.963Z,1013.31
2017-04-07T00:09:44.454Z,1013.36
2017-04-07T00:10:25.097Z,1013.32
2017-04-07T00:11:05.464Z,1013.39
2017-04-07T00:11:46.071Z,1013.39
2017-04-07T00:12:26.494Z,1013.35
2017-04-07T00:13:06.976Z,1013.32
2017-04-07T00:13:47.462Z,1013.3
2017-04-07T00:14:27.955Z,1013.31
2017-04-07T00:15:08.450Z,1013.25
2017-04-07T00:15:48.949Z,1013.28
2017-04-07T00:16:29.482Z,1013.33
2017-04-07T00:17:09.959Z,1013.34
2017-04-07T00:17:50.466Z,1013.33
2017-04-07T00:18:30.979Z,1013.3
2017-04-07T00:19:11.486Z,1013.27
2017-04-07T00:19:51.972Z,1013.22
2017-04-07T00:20:32.485Z,1013.22
2017-04-07T00:21:12.985Z,1013.25
2017-04-07T00:21:53.448Z,1013.28
2017-04-07T00:22:33.945Z,1013.26
2017-04-07T00:23:14.446Z,1013.24
2017-04-07T00:23:54.947Z,1013.2
2017-04-07T00:24:35.449Z,1013.2
2017-04-07T00:25:15.929Z,1013.19
2017-04-07T00:25:56.386Z,1013.21
2017-04-07T00:26:36.898Z,1013.16
2017-04-07T00:27:17.396Z,1013.16
2017-04-07T00:27:57.871Z,1013.15
2017-04-07T00:28:38.372Z,1013.11
2017-04-07T00:29:18.819Z,1013.09
2017-04-07T00:29:59.380Z,1013.13
2017-04-07T00:30:39.877Z,1013.1
2017-04-07T00:31:20.370Z,1013.13
2017-04-07T00:32:00.884Z,1013.12
2017-04-07T00:32:41.371Z,1013.08
2017-04-07T00:33:21.918Z,1013.06
2017-04-07T00:34:02.424Z,1013.07
2017-04-07T00:34:42.868Z,1013.04
2017-04-07T00:35:23.391Z,1013.05
2017-04-07T00:36:03.853Z,1013.08
2017-04-07T00:36:44.363Z,1013.07
2017-04-07T00:37:24.851Z,1013.09
2017-04-07T00:38:05.342Z,1013.1
2017-04-07T00:38:45.854Z,1013.05
2017-04-07T00:39:26.361Z,1013.1
2017-04-07T00:40:06.821Z,1013.08
2017-04-07T00:40:47.310Z,1013.12
2017-04-07T00:41:27.756Z,1013.05
2017-04-07T00:42:08.274Z,1013.09
2017-04-07T00:42:48.754Z,1013.14
2017-04-07T00:43:29.241Z,1013.1
2017-04-07T00:44:09.739Z,1013.08
2017-04-07T00:44:50.229Z,1013.09
2017-04-07T00:45:30.754Z,1013.06
2017-04-07T00:46:11.277Z,1012.98
2017-04-07T00:46:51.735Z,1013.02
2017-04-07T00:47:32.229Z,1013.02
2017-04-07T00:48:12.738Z,1013.01
2017-04-07T00:48:53.262Z,1013.05
2017-04-07T00:49:33.722Z,1013.05
2017-04-07T00:50:14.205Z,1013.02
2017-04-07T00:50:54.698Z,1013.02
2017-04-07T00:51:35.483Z,1013.02
2017-04-07T00:52:15.946Z,1012.97
2017-04-07T00:52:56.453Z,1012.99
2017-04-07T00:53:36.957Z,1013.01
2017-04-07T00:54:17.479Z,1012.97
2017-04-07T00:54:57.901Z,1012.95
2017-04-07T00:55:38.401Z,1012.95
2017-04-07T00:56:18.935Z,1012.98
2017-04-07T00:56:59.391Z,1012.98
2017-04-07T00:57:39.886Z,1012.94
2017-04-07T01:00:08.319Z,1012.92
2017-04-07T01:00:48.821Z,1012.93
2017-04-07T01:01:29.318Z,1012.97
2017-04-07T01:02:09.806Z,1012.94
2017-04-07T01:02:50.306Z,1012.96
2017-04-07T01:03:30.798Z,1012.98
2017-04-07T01:04:14.884Z,1012.92
2017-04-07T01:04:55.400Z,1012.92
2017-04-07T01:05:35.852Z,1012.93
2017-04-07T01:06:16.335Z,1012.94
2017-04-07T01:06:56.813Z,1012.9
2017-04-07T01:07:37.342Z,1012.9
2017-04-07T01:08:17.839Z,1012.88
2017-04-07T01:08:58.346Z,1012.92
2017-04-07T01:09:38.862Z,1012.86
2017-04-07T01:10:19.353Z,1012.87
2017-04-07T01:10:59.856Z,1012.86
2017-04-07T01:11:40.352Z,1012.85
2017-04-07T01:12:20.830Z,1012.85
2017-04-07T01:13:01.292Z,1012.8
2017-04-07T01:13:41.748Z,1012.76
2017-04-07T01:14:22.255Z,1012.77
2017-04-07T01:15:02.734Z,1012.79
2017-04-07T01:15:43.224Z,1012.78
2017-04-07T01:16:23.697Z,1012.77
2017-04-07T01:17:04.212Z,1012.73
2017-04-07T01:17:44.690Z,1012.77
2017-04-07T01:18:25.199Z,1012.76
2017-04-07T01:19:05.666Z,1012.74
2017-04-07T01:19:46.191Z,1012.79
2017-04-07T01:20:26.687Z,1012.82
2017-04-07T01:21:07.128Z,1012.77
2017-04-07T01:21:47.661Z,1012.71
2017-04-07T01:22:28.116Z,1012.73
2017-04-07T01:23:08.583Z,1012.72
2017-04-07T01:23:49.073Z,1012.77
2017-04-07T01:24:29.580Z,1012.77
2017-04-07T01:25:10.077Z,1012.76
2017-04-07T01:25:50.580Z,1012.75
2017-04-07T01:26:31.074Z,1012.68
2017-04-07T01:27:11.602Z,1012.66
2017-04-07T01:27:52.067Z,1012.65
2017-04-07T01:28:32.575Z,1012.63
2017-04-07T01:29:13.068Z,1012.59
2017-04-07T01:29:53.533Z,1012.62
2017-04-07T01:30:34.047Z,1012.6
2017-04-07T01:31:14.546Z,1012.61
2017-04-07T01:31:55.053Z,1012.63
2017-04-07T01:32:35.527Z,1012.6
2017-04-07T01:33:16.004Z,1012.6
2017-04-07T01:33:56.502Z,1012.63
2017-04-07T01:34:36.985Z,1012.61
2017-04-07T01:35:17.482Z,1012.59
2017-04-07T01:35:58.008Z,1012.57
2017-04-07T01:36:38.453Z,1012.58
2017-04-07T01:37:19.000Z,1012.54
2017-04-07T01:37:59.476Z,1012.55
2017-04-07T01:38:39.927Z,1012.58
2017-04-07T01:39:20.428Z,1012.6
2017-04-07T01:40:00.947Z,1012.6
2017-04-07T01:40:41.436Z,1012.54
2017-04-07T01:41:21.917Z,1012.52
2017-04-07T01:42:02.448Z,1012.54
2017-04-07T01:42:42.936Z,1012.57
2017-04-07T01:43:23.420Z,1012.49
2017-04-07T01:44:03.885Z,1012.51
2017-04-07T01:44:44.366Z,1012.52
2017-04-07T01:45:24.917Z,1012.45
2017-04-07T01:46:05.397Z,1012.49
2017-04-07T01:46:45.835Z,1012.44
2017-04-07T01:47:26.375Z,1012.45
2017-04-07T01:48:06.840Z,1012.44
2017-04-07T01:48:47.326Z,1012.37
2017-04-07T01:49:27.873Z,1012.37
2017-04-07T01:50:08.310Z,1012.38
2017-04-07T01:50:48.820Z,1012.38
2017-04-07T01:51:29.299Z,1012.41
2017-04-07T01:52:09.768Z,1012.45
2017-04-07T01:52:50.312Z,1012.43
2017-04-07T01:53:30.771Z,1012.42
2017-04-07T01:54:11.280Z,1012.47
2017-04-07T01:54:51.825Z,1012.44
2017-04-07T01:55:32.374Z,1012.43
2017-04-07T01:56:12.793Z,1012.4
2017-04-07T01:58:05.906Z,1012.36
2017-04-07T01:58:50.243Z,1012.36
2017-04-07T01:59:30.742Z,1012.39
2017-04-07T02:00:11.241Z,1012.37
2017-04-07T02:00:51.742Z,1012.34
2017-04-07T02:01:32.219Z,1012.35
2017-04-07T02:02:12.706Z,1012.32
2017-04-07T02:02:53.244Z,1012.35
2017-04-07T02:03:33.785Z,1012.32
2017-04-07T02:04:14.234Z,1012.34
2017-04-07T02:04:54.746Z,1012.37
2017-04-07T02:05:35.235Z,1012.34
2017-04-07T02:06:15.718Z,1012.37
2017-04-07T02:06:56.245Z,1012.33
2017-04-07T02:07:36.674Z,1012.37
2017-04-07T02:08:17.186Z,1012.33
2017-04-07T02:08:57.702Z,1012.36
2017-04-07T02:09:38.199Z,1012.33
2017-04-07T02:10:18.699Z,1012.33
2017-04-07T02:10:59.226Z,1012.38
2017-04-07T02:11:39.686Z,1012.39
2017-04-07T02:12:20.214Z,1012.35
2017-04-07T02:13:00.659Z,1012.41
2017-04-07T02:13:41.190Z,1012.43
2017-04-07T02:14:21.648Z,1012.43
2017-04-07T02:15:02.176Z,1012.43
2017-04-07T02:15:42.656Z,1012.38
2017-04-07T02:16:23.136Z,1012.39
2017-04-07T02:17:03.615Z,1012.39
2017-04-07T02:17:44.128Z,1012.36
2017-04-07T02:18:24.645Z,1012.31
2017-04-07T02:19:05.092Z,1012.33
2017-04-07T02:19:45.606Z,1012.36
2017-04-07T02:20:26.094Z,1012.35
2017-04-07T02:21:06.598Z,1012.36
2017-04-07T02:21:47.036Z,1012.37
2017-04-07T02:22:27.568Z,1012.35
2017-04-07T02:23:08.056Z,1012.43
2017-04-07T02:23:48.500Z,1012.39
2017-04-07T02:24:29.047Z,1012.36
2017-04-07T02:25:09.501Z,1012.37
2017-04-07T02:25:49.950Z,1012.34
2017-04-07T02:26:30.493Z,1012.37
2017-04-07T02:27:10.950Z,1012.33
2017-04-07T02:27:51.475Z,1012.37
2017-04-07T02:28:31.943Z,1012.3
2017-04-07T02:29:12.399Z,1012.33
2017-04-07T02:29:52.924Z,1012.32
2017-04-07T02:30:33.393Z,1012.3
2017-04-07T02:31:13.875Z,1012.3
2017-04-07T02:31:54.395Z,1012.27
2017-04-07T02:32:34.901Z,1012.32
2017-04-07T02:33:15.361Z,1012.3
2017-04-07T02:33:55.820Z,1012.31
2017-04-07T02:34:36.358Z,1012.29
2017-04-07T02:35:16.888Z,1012.29
2017-04-07T02:35:57.405Z,1012.3
2017-04-07T02:36:37.872Z,1012.29
2017-04-07T02:37:18.364Z,1012.29
2017-04-07T02:37:58.824Z,1012.28
2017-04-07T02:38:39.296Z,1012.29
2017-04-07T02:39:19.802Z,1012.29
2017-04-07T02:40:00.305Z,1012.26
2017-04-07T02:40:40.759Z,1012.28
2017-04-07T02:41:21.251Z,1012.3
2017-04-07T02:42:01.766Z,1012.29
2017-04-07T02:42:42.217Z,1012.28
2017-04-07T02:43:22.692Z,1012.31
2017-04-07T02:44:03.212Z,1012.26
2017-04-07T02:44:43.672Z,1012.3
2017-04-07T02:45:24.140Z,1012.32
2017-04-07T02:46:04.623Z,1012.34
2017-04-07T02:46:45.107Z,1012.3
2017-04-07T02:47:25.582Z,1012.29
2017-04-07T02:48:06.081Z,1012.31
2017-04-07T02:48:46.603Z,1012.31
2017-04-07T02:49:27.083Z,1012.33
2017-04-07T02:50:07.569Z,1012.32
2017-04-07T02:50:48.058Z,1012.32
2017-04-07T02:51:28.551Z,1012.32
2017-04-07T02:52:09.050Z,1012.34
2017-04-07T02:52:49.520Z,1012.3
2017-04-07T02:53:30.015Z,1012.31
2017-04-07T02:54:10.489Z,1012.31
2017-04-07T02:54:50.956Z,1012.32
2017-04-07T02:55:31.521Z,1012.34
2017-04-07T02:56:11.972Z,1012.33
2017-04-07T02:56:52.416Z,1012.32
2017-04-07T02:57:32.950Z,1012.3
2017-04-07T02:58:13.424Z,1012.38
2017-04-07T02:58:53.956Z,1012.31
2017-04-07T02:59:34.452Z,1012.31
2017-04-07T03:00:14.924Z,1012.29
2017-04-07T03:00:55.452Z,1012.26
2017-04-07T03:01:35.912Z,1012.24
2017-04-07T03:02:16.405Z,1012.24
2017-04-07T03:02:56.899Z,1012.25
2017-04-07T03:03:37.364Z,1012.24
2017-04-07T03:04:17.878Z,1012.25
2017-04-07T03:04:58.363Z,1012.25
2017-04-07T03:05:38.845Z,1012.24
2017-04-07T03:06:19.326Z,1012.25
2017-04-07T03:06:59.871Z,1012.24
2017-04-07T03:07:40.325Z,1012.25
2017-04-07T03:08:20.839Z,1012.23
2017-04-07T03:09:01.428Z,1012.23
2017-04-07T03:09:41.880Z,1012.22
2017-04-07T03:10:22.412Z,1012.17
2017-04-07T03:11:02.869Z,1012.2
2017-04-07T03:11:43.382Z,1012.15
2017-04-07T03:12:23.864Z,1012.18
2017-04-07T03:13:04.385Z,1012.17
2017-04-07T03:13:44.853Z,1012.16
2017-04-07T03:14:25.347Z,1012.2
2017-04-07T03:15:05.929Z,1012.19
2017-04-07T03:15:46.368Z,1012.16
2017-04-07T03:16:26.915Z,1012.17
2017-04-07T03:17:07.339Z,1012.17
2017-04-07T03:17:47.825Z,1012.13
2017-04-07T03:18:28.295Z,1012.1
2017-04-07T03:19:08.787Z,1012.11
2017-04-07T03:19:49.334Z,1012.12
2017-04-07T03:20:29.817Z,1012.13
2017-04-07T03:21:10.291Z,1012.12
2017-04-07T03:21:50.778Z,1012.15
2017-04-07T03:22:31.283Z,1012.13
2017-04-07T03:23:11.768Z,1012.14
2017-04-07T03:23:52.240Z,1012.14
2017-04-07T03:24:32.754Z,1012.12
2017-04-07T03:25:13.285Z,1012.12
2017-04-07T03:25:53.805Z,1012.17
2017-04-07T03:26:34.278Z,1012.15
2017-04-07T03:27:14.767Z,1012.18
2017-04-07T03:27:55.305Z,1012.12
2017-04-07T03:28:35.768Z,1012.16
2017-04-07T03:29:16.267Z,1012.15
2017-04-07T03:29:56.759Z,1012.15
2017-04-07T03:30:37.218Z,1012.18
2017-04-07T03:31:17.737Z,1012.15
2017-04-07T03:31:58.277Z,1012.13
2017-04-07T03:32:38.807Z,1012.14
2017-04-07T03:33:19.204Z,1012.15
2017-04-07T03:33:59.699Z,1012.13
2017-04-07T03:34:40.172Z,1012.16
2017-04-07T03:35:20.654Z,1012.13
2017-04-07T03:36:01.164Z,1012.09
2017-04-07T03:36:41.683Z,1012.06
2017-04-07T03:37:22.205Z,1012.06
2017-04-07T03:38:02.667Z,1012.07
2017-04-07T03:38:43.211Z,1012.08
2017-04-07T03:39:23.692Z,1012.05
2017-04-07T03:40:04.162Z,1012.03
2017-04-07T03:40:44.686Z,1012.06
2017-04-07T03:41:25.164Z,1012.07
2017-04-07T03:42:05.682Z,1012.02
2017-04-07T03:42:46.152Z,1012.01
2017-04-07T03:43:26.654Z,1012.01
2017-04-07T03:44:07.113Z,1012.04
2017-04-07T03:44:47.632Z,1012.03
2017-04-07T03:45:28.120Z,1012.03
2017-04-07T03:46:08.591Z,1012.02
2017-04-07T03:46:49.063Z,1012.06
2017-04-07T03:47:29.605Z,1012.01
2017-04-07T03:48:10.099Z,1011.97
2017-04-07T03:48:50.588Z,1012.02
2017-04-07T03:49:31.150Z,1012.03
2017-04-07T03:50:11.544Z,1012
2017-04-07T03:50:52.050Z,1011.98
2017-04-07T03:51:32.563Z,1011.99
2017-04-07T03:52:13.056Z,1011.99
2017-04-07T03:52:53.506Z,1012
2017-04-07T03:53:34.032Z,1011.95
2017-04-07T03:54:14.487Z,1011.95
2017-04-07T03:54:54.989Z,1011.94
2017-04-07T03:55:35.458Z,1011.94
2017-04-07T03:56:15.991Z,1011.96
2017-04-07T03:56:56.462Z,1011.94
2017-04-07T03:57:36.942Z,1011.97
2017-04-07T03:58:17.419Z,1011.95
2017-04-07T03:58:57.926Z,1011.96
2017-04-07T03:59:38.420Z,1011.96
2017-04-07T04:00:18.879Z,1012
2017-04-07T04:00:59.429Z,1011.96
2017-04-07T04:01:39.861Z,1011.95
2017-04-07T04:02:20.376Z,1012.02
2017-04-07T04:03:00.920Z,1011.98
2017-04-07T04:03:41.379Z,1011.99
2017-04-07T04:04:21.811Z,1012.01
2017-04-07T04:05:02.386Z,1011.96
2017-04-07T04:05:42.827Z,1011.97
2017-04-07T04:06:23.300Z,1011.97
2017-04-07T04:07:03.836Z,1011.95
2017-04-07T04:07:44.304Z,1011.99
2017-04-07T04:08:24.771Z,1011.94
2017-04-07T04:09:05.277Z,1011.96
2017-04-07T04:09:45.710Z,1011.97
2017-04-07T04:10:26.195Z,1011.94
2017-04-07T04:11:06.671Z,1011.96
2017-04-07T04:11:47.169Z,1011.97
2017-04-07T04:12:27.651Z,1011.98
2017-04-07T04:13:08.121Z,1011.94
2017-04-07T04:13:48.624Z,1011.96
2017-04-07T04:14:29.107Z,1011.97
2017-04-07T04:15:09.602Z,1011.96
2017-04-07T04:15:50.090Z,1011.97
2017-04-07T04:16:30.614Z,1011.98
2017-04-07T04:17:11.119Z,1012.03
2017-04-07T04:17:51.750Z,1011.99
2017-04-07T04:18:32.117Z,1011.98
2017-04-07T04:19:12.610Z,1012.01
2017-04-07T04:19:53.089Z,1011.99
2017-04-07T04:20:33.574Z,1011.97
2017-04-07T04:21:14.066Z,1011.99
2017-04-07T04:21:54.580Z,1011.96
2017-04-07T04:22:35.036Z,1011.95
2017-04-07T04:23:15.550Z,1011.99
2017-04-07T04:23:56.095Z,1011.98
2017-04-07T04:24:36.541Z,1011.96
2017-04-07T04:25:17.062Z,1011.99
2017-04-07T04:25:57.548Z,1011.99
2017-04-07T04:26:38.022Z,1011.94
2017-04-07T04:27:18.542Z,1011.99
2017-04-07T04:27:58.989Z,1011.94
2017-04-07T04:28:39.481Z,1011.94
2017-04-07T04:29:19.967Z,1011.96
2017-04-07T04:30:00.521Z,1011.98
2017-04-07T04:30:41.010Z,1011.96
2017-04-07T04:31:21.495Z,1011.97
2017-04-07T04:32:01.989Z,1011.97
2017-04-07T04:32:42.459Z,1011.95
2017-04-07T04:33:22.984Z,1012
2017-04-07T04:34:03.457Z,1012.03
2017-04-07T04:34:43.928Z,1011.99
2017-04-07T04:35:24.400Z,1012
2017-04-07T04:36:04.898Z,1012.01
2017-04-07T04:36:45.373Z,1011.99
2017-04-07T04:37:25.906Z,1011.95
2017-04-07T04:38:06.329Z,1011.96
2017-04-07T04:38:46.861Z,1011.93
2017-04-07T04:39:27.417Z,1012.02
2017-04-07T04:40:07.933Z,1011.98
2017-04-07T04:40:48.395Z,1012
2017-04-07T04:41:28.911Z,1012.01
2017-04-07T04:42:09.436Z,1012
2017-04-07T04:42:49.932Z,1011.97
2017-04-07T04:43:30.402Z,1011.97
2017-04-07T04:44:10.893Z,1011.93
2017-04-07T04:44:51.429Z,1011.99
2017-04-07T04:45:31.900Z,1011.95
2017-04-07T04:46:12.360Z,1011.97
2017-04-07T04:46:52.839Z,1011.98
2017-04-07T04:47:33.327Z,1012.01
2017-04-07T04:48:13.827Z,1011.96
2017-04-07T04:48:54.320Z,1011.94
2017-04-07T04:49:34.832Z,1011.93
2017-04-07T04:50:15.293Z,1011.94
2017-04-07T04:50:55.762Z,1011.93
2017-04-07T04:51:36.325Z,1011.91
2017-04-07T04:52:16.782Z,1011.96
2017-04-07T04:52:57.222Z,1011.92
2017-04-07T04:53:37.794Z,1011.96
2017-04-07T04:54:18.229Z,1012
2017-04-07T04:54:58.704Z,1011.95
2017-04-07T04:55:39.253Z,1011.98
2017-04-07T04:56:19.809Z,1011.98
2017-04-07T04:57:00.222Z,1012.03
2017-04-07T04:57:40.730Z,1011.98
2017-04-07T04:58:21.226Z,1012
2017-04-07T04:59:01.741Z,1011.98
2017-04-07T04:59:42.447Z,1011.97
2017-04-07T05:00:22.727Z,1011.99
2017-04-07T05:01:03.207Z,1011.97
2017-04-07T05:01:43.730Z,1012
2017-04-07T05:02:24.229Z,1011.96
2017-04-07T05:03:04.706Z,1011.98
2017-04-07T05:03:45.159Z,1011.97
2017-04-07T05:04:25.658Z,1012.01
2017-04-07T05:05:06.073Z,1011.95
2017-04-07T05:05:46.616Z,1011.98
2017-04-07T05:06:27.093Z,1012.02
2017-04-07T05:07:07.612Z,1012.04
2017-04-07T05:07:48.104Z,1012.08
2017-04-07T05:08:28.622Z,1012.03
2017-04-07T05:09:09.132Z,1012.05
2017-04-07T05:09:49.621Z,1012.1
2017-04-07T05:10:30.086Z,1012.05
2017-04-07T05:11:10.573Z,1012.02
2017-04-07T05:11:51.086Z,1012
2017-04-07T05:12:31.566Z,1012.04
2017-04-07T05:13:12.059Z,1012.01
2017-04-07T05:13:52.515Z,1012.03
2017-04-07T05:14:33.010Z,1012.03
2017-04-07T05:15:13.540Z,1012.03
2017-04-07T05:15:54.400Z,1012.02
2017-04-07T05:16:34.508Z,1012.06
2017-04-07T05:17:14.992Z,1012.06
2017-04-07T05:17:55.556Z,1012.09
2017-04-07T05:18:36.081Z,1012.11
2017-04-07T05:19:16.518Z,1012.08
2017-04-07T05:19:57.066Z,1012.07
2017-04-07T05:20:37.560Z,1012.18
2017-04-07T05:21:18.103Z,1012.12
2017-04-07T05:21:58.710Z,1012.18
2017-04-07T05:22:39.177Z,1012.17
2017-04-07T05:23:19.641Z,1012.18
2017-04-07T05:24:00.130Z,1012.16
2017-04-07T05:24:40.660Z,1012.18
2017-04-07T05:25:21.167Z,1012.16
2017-04-07T05:26:01.789Z,1012.23
2017-04-07T05:26:42.299Z,1012.22
2017-04-07T05:27:22.786Z,1012.22
2017-04-07T05:28:03.253Z,1012.25
2017-04-07T05:28:43.817Z,1012.23
2017-04-07T05:29:24.327Z,1012.25
2017-04-07T05:30:04.895Z,1012.27
2017-04-07T05:30:45.291Z,1012.22
2017-04-07T05:31:25.827Z,1012.3
2017-04-07T05:32:06.331Z,1012.28
2017-04-07T05:32:46.964Z,1012.28
2017-04-07T05:33:27.434Z,1012.3
2017-04-07T05:34:07.919Z,1012.35
2017-04-07T05:34:48.445Z,1012.31
2017-04-07T05:35:28.949Z,1012.35
2017-04-07T05:36:09.394Z,1012.3
2017-04-07T05:36:49.887Z,1012.35
2017-04-07T05:37:30.394Z,1012.35
2017-04-07T05:38:10.897Z,1012.31
2017-04-07T05:38:51.371Z,1012.43
2017-04-07T05:39:32.029Z,1012.35
2017-04-07T05:40:12.833Z,1012.34
2017-04-07T05:40:53.328Z,1012.39
2017-04-07T05:41:33.817Z,1012.38
2017-04-07T05:42:14.299Z,1012.4
2017-04-07T05:42:54.756Z,1012.37
2017-04-07T05:43:35.265Z,1012.39
2017-04-07T05:44:15.740Z,1012.41
2017-04-07T05:44:56.241Z,1012.42
2017-04-07T05:45:36.749Z,1012.44
2017-04-07T05:46:17.256Z,1012.42
2017-04-07T05:46:57.704Z,1012.46
2017-04-07T05:47:38.252Z,1012.48
2017-04-07T05:48:18.838Z,1012.48
2017-04-07T05:48:59.385Z,1012.48
2017-04-07T05:49:40.074Z,1012.49
2017-04-07T05:50:20.915Z,1012.53
2017-04-07T05:51:03.030Z,1012.51
2017-04-07T05:51:43.622Z,1012.51
2017-04-07T05:52:24.074Z,1012.53
2017-04-07T05:53:04.661Z,1012.56
2017-04-07T05:53:45.184Z,1012.51
2017-04-07T05:54:25.634Z,1012.54
2017-04-07T05:55:06.160Z,1012.51
2017-04-07T05:55:46.648Z,1012.54
2017-04-07T05:56:27.106Z,1012.53
2017-04-07T05:57:07.581Z,1012.5
2017-04-07T05:57:48.195Z,1012.5
2017-04-07T05:58:28.691Z,1012.54
2017-04-07T05:59:09.252Z,1012.49
2017-04-07T05:59:49.744Z,1012.55
2017-04-07T06:00:30.291Z,1012.52
2017-04-07T06:01:10.681Z,1012.52
2017-04-07T06:01:51.181Z,1012.55
2017-04-07T06:02:31.642Z,1012.59
2017-04-07T06:03:12.216Z,1012.56
2017-04-07T06:03:52.646Z,1012.56
2017-04-07T06:04:33.139Z,1012.58
2017-04-07T06:05:13.635Z,1012.58
2017-04-07T06:05:54.152Z,1012.59
2017-04-07T06:06:34.662Z,1012.59
2017-04-07T06:07:15.161Z,1012.59
2017-04-07T06:07:55.665Z,1012.63
2017-04-07T06:08:36.181Z,1012.62
2017-04-07T06:09:16.687Z,1012.62
2017-04-07T06:09:57.459Z,1012.61
2017-04-07T06:10:37.990Z,1012.58
2017-04-07T06:11:18.506Z,1012.61
2017-04-07T06:11:59.055Z,1012.62
2017-04-07T06:12:39.502Z,1012.59
2017-04-07T06:13:20.019Z,1012.61
2017-04-07T06:14:00.597Z,1012.62
2017-04-07T06:14:41.073Z,1012.6
2017-04-07T06:15:21.552Z,1012.58
2017-04-07T06:16:02.027Z,1012.64
2017-04-07T06:16:42.495Z,1012.65
2017-04-07T06:17:23.024Z,1012.65
2017-04-07T06:18:03.498Z,1012.65
2017-04-07T06:18:44.004Z,1012.71
2017-04-07T06:19:24.453Z,1012.68
2017-04-07T06:20:04.921Z,1012.71
2017-04-07T06:20:45.426Z,1012.66
2017-04-07T06:21:25.921Z,1012.63
2017-04-07T06:22:06.436Z,1012.63
2017-04-07T06:22:46.897Z,1012.67
2017-04-07T06:23:27.436Z,1012.65
2017-04-07T06:24:07.875Z,1012.7
2017-04-07T06:24:48.501Z,1012.66
2017-04-07T06:25:28.828Z,1012.66
2017-04-07T06:26:09.348Z,1012.69
2017-04-07T06:26:49.845Z,1012.67
2017-04-07T06:27:30.324Z,1012.64
2017-04-07T06:28:10.810Z,1012.71
2017-04-07T06:28:51.249Z,1012.73
2017-04-07T06:29:31.757Z,1012.76
2017-04-07T06:30:12.260Z,1012.74
2017-04-07T06:30:54.745Z,1012.75
2017-04-07T06:31:35.412Z,1012.74
2017-04-07T06:32:15.960Z,1012.77
2017-04-07T06:32:56.434Z,1012.7
2017-04-07T06:33:36.969Z,1012.75
2017-04-07T06:34:17.486Z,1012.77
2017-04-07T06:34:58.006Z,1012.81
2017-04-07T06:35:38.468Z,1012.74
2017-04-07T06:36:18.928Z,1012.79
2017-04-07T06:36:59.421Z,1012.77
2017-04-07T06:37:39.928Z,1012.8
2017-04-07T06:38:20.442Z,1012.73
2017-04-07T06:39:00.919Z,1012.77
2017-04-07T06:39:41.506Z,1012.77
2017-04-07T06:40:21.981Z,1012.76
2017-04-07T06:41:02.528Z,1012.75
2017-04-07T06:42:55.689Z,1012.74
2017-04-07T06:43:36.132Z,1012.77
2017-04-07T06:44:16.592Z,1012.74
2017-04-07T06:44:57.419Z,1012.77
2017-04-07T06:45:37.835Z,1012.78
2017-04-07T06:46:18.334Z,1012.79
2017-04-07T06:46:58.777Z,1012.83
2017-04-07T06:47:39.279Z,1012.84
2017-04-07T06:48:19.811Z,1012.79
2017-04-07T06:49:00.278Z,1012.81
2017-04-07T06:49:40.771Z,1012.8
2017-04-07T06:50:21.298Z,1012.81
2017-04-07T06:51:01.776Z,1012.79
2017-04-07T06:51:42.270Z,1012.77
2017-04-07T06:52:22.704Z,1012.74
2017-04-07T06:53:03.208Z,1012.79
2017-04-07T06:53:43.754Z,1012.81
2017-04-07T06:54:24.256Z,1012.82
2017-04-07T06:55:04.685Z,1012.82
2017-04-07T06:55:45.181Z,1012.85
2017-04-07T06:56:25.640Z,1012.82
2017-04-07T06:57:06.140Z,1012.83
2017-04-07T06:57:46.720Z,1012.86
2017-04-07T06:58:27.195Z,1012.85
2017-04-07T06:59:07.684Z,1012.85
2017-04-07T06:59:48.208Z,1012.77
2017-04-07T07:00:28.719Z,1012.76
2017-04-07T07:01:09.227Z,1012.82
2017-04-07T07:01:49.699Z,1012.79
2017-04-07T07:02:30.163Z,1012.81
2017-04-07T07:03:10.646Z,1012.82
2017-04-07T07:03:51.158Z,1012.84
2017-04-07T07:04:31.625Z,1012.83
2017-04-07T07:05:12.080Z,1012.78
2017-04-07T07:05:52.619Z,1012.84
2017-04-07T07:06:33.110Z,1012.77
2017-04-07T07:07:13.619Z,1012.8
2017-04-07T07:07:54.133Z,1012.78
2017-04-07T07:08:34.608Z,1012.83
2017-04-07T07:09:15.222Z,1012.86
2017-04-07T07:09:55.709Z,1012.86
2017-04-07T07:10:36.216Z,1012.89
2017-04-07T07:11:16.740Z,1012.91
2017-04-07T07:11:57.202Z,1012.92
2017-04-07T07:12:37.687Z,1012.96
2017-04-07T07:13:18.185Z,1012.95
2017-04-07T07:13:58.700Z,1012.98
2017-04-07T07:14:39.228Z,1012.94
2017-04-07T07:15:19.678Z,1012.96
2017-04-07T07:16:00.212Z,1012.93
2017-04-07T07:16:40.754Z,1012.97
2017-04-07T07:17:21.215Z,1012.93
2017-04-07T07:18:01.673Z,1012.97
2017-04-07T07:18:42.184Z,1013.03
2017-04-07T07:19:22.783Z,1012.99
2017-04-07T07:20:03.168Z,1013.03
2017-04-07T07:20:43.628Z,1013.02
2017-04-07T07:21:24.140Z,1012.99
2017-04-07T07:22:04.712Z,1012.99
2017-04-07T07:22:45.116Z,1012.99
2017-04-07T07:23:25.602Z,1013.01
2017-04-07T07:24:06.076Z,1013
2017-04-07T07:24:46.572Z,1013.07
2017-04-07T07:25:27.045Z,1013.05
2017-04-07T07:26:07.558Z,1013
2017-04-07T07:26:48.042Z,1013.07
2017-04-07T07:27:28.577Z,1013.07
2017-04-07T07:28:09.083Z,1013.06
2017-04-07T07:28:49.565Z,1013.07
2017-04-07T07:29:30.054Z,1013.09
2017-04-07T07:30:10.525Z,1013.06
2017-04-07T07:30:51.028Z,1013.09
2017-04-07T07:31:31.577Z,1013.09
2017-04-07T07:32:12.051Z,1013.03
2017-04-07T07:32:52.574Z,1013.08
2017-04-07T07:33:33.083Z,1013.04
2017-04-07T07:34:13.601Z,1013.07
2017-04-07T07:34:54.073Z,1013.06
2017-04-07T07:35:34.605Z,1013.1
2017-04-07T07:36:15.091Z,1013.07
2017-04-07T07:36:55.566Z,1013.07
2017-04-07T07:37:36.051Z,1013.1
2017-04-07T07:38:16.496Z,1013.12
2017-04-07T07:38:57.079Z,1013.1
2017-04-07T07:39:37.471Z,1013.13
2017-04-07T07:40:17.987Z,1013.14
2017-04-07T07:40:58.641Z,1013.12
2017-04-07T07:41:39.107Z,1013.13
2017-04-07T07:42:19.598Z,1013.11
2017-04-07T07:43:00.065Z,1013.07
2017-04-07T07:43:40.568Z,1013.12
2017-04-07T07:44:20.990Z,1013.05
2017-04-07T07:45:01.542Z,1013.05
2017-04-07T07:45:42.080Z,1013.07
2017-04-07T07:46:22.485Z,1013.12
2017-04-07T07:47:02.970Z,1013.11
2017-04-07T07:47:43.497Z,1013.11
2017-04-07T07:48:23.971Z,1013.09
2017-04-07T07:49:04.528Z,1013.07
2017-04-07T07:49:45.018Z,1013.07
2017-04-07T07:50:25.503Z,1013.03
2017-04-07T07:51:06.048Z,1013.05
2017-04-07T07:51:46.494Z,1013.11
2017-04-07T07:52:26.975Z,1013.06
2017-04-07T07:53:07.482Z,1013.09
2017-04-07T07:53:47.925Z,1013.08
2017-04-07T07:54:28.505Z,1013.07
2017-04-07T07:55:08.965Z,1013.07
2017-04-07T07:55:49.471Z,1013.09
2017-04-07T07:56:29.985Z,1013.11
2017-04-07T07:57:10.490Z,1013.09
2017-04-07T07:57:50.949Z,1013.11
2017-04-07T07:58:31.520Z,1013.1
2017-04-07T07:59:11.980Z,1013.08
2017-04-07T07:59:52.470Z,1013.03
2017-04-07T08:00:32.954Z,1013.03
2017-04-07T08:01:13.436Z,1013.04
2017-04-07T08:01:53.932Z,1013.05
2017-04-07T08:02:34.468Z,1013.07
2017-04-07T08:03:14.928Z,1012.98
2017-04-07T08:03:55.393Z,1012.98
2017-04-07T08:04:35.885Z,1012.97
2017-04-07T08:05:16.374Z,1012.97
2017-04-07T08:05:56.871Z,1012.96
2017-04-07T08:06:37.406Z,1012.96
2017-04-07T08:07:17.861Z,1012.95
2017-04-07T08:07:58.327Z,1012.99
2017-04-07T08:08:38.861Z,1012.97
2017-04-07T08:09:19.413Z,1012.9
2017-04-07T08:09:59.907Z,1012.98
2017-04-07T08:10:40.429Z,1012.96
2017-04-07T08:11:20.898Z,1012.97
2017-04-07T08:12:01.516Z,1013.01
2017-04-07T08:12:42.062Z,1012.89
2017-04-07T08:13:22.494Z,1012.93
2017-04-07T08:14:02.983Z,1012.93
2017-04-07T08:14:43.490Z,1012.89
2017-04-07T08:15:23.962Z,1012.92
2017-04-07T08:17:43.324Z,1012.91